CheckWX is a tool to help pilots better visualize weather data.  It is not intended as a substitute for an official pre-flight weather briefing.

01:34:55 UTC

WMKJ METAR
Senai International Airport
Senai, Malaysia
Current

35 mins ago

WMKJ 060100Z 00000KT 9999 FEW018 27/25 Q1008
Observed
Jul-6 @ 01:00 UTC
Visibility
10,000+ meters
Flight Rules
VFR
Cloud Levels
  • Few at 1,800' AGL
Temperature
27°C / 81°F
Dewpoint
25°C / 77°F
Humidity
89%
Altimeter
29.76" Hg
Pressure
1007.92 hPa
Previous

2 hours ago

WMKJ 060000Z 00000KT 9999 FEW008 25/24 Q1008
Observed
Jul-6 @ 00:00 UTC
Visibility
10,000+ meters
Flight Rules
VFR
Cloud Levels
  • Few at 800' AGL
Temperature
25°C / 77°F
Dewpoint
24°C / 75°F
Humidity
94%
Altimeter
29.76" Hg
Pressure
1007.92 hPa
Previous

3 hours ago

WMKJ 052300Z 00000KT 9999 FEW008 24/23 Q1007
Observed
Jul-5 @ 23:00 UTC
Visibility
10,000+ meters
Flight Rules
VFR
Cloud Levels
  • Few at 800' AGL
Temperature
24°C / 75°F
Dewpoint
23°C / 73°F
Humidity
94%
Altimeter
29.73" Hg
Pressure
1006.92 hPa